Time;durP1;ratioP1;P1;durP2;ratioP2;P2;SDS_P1;SDS_P2;PMS_P1;PMS_P2;Temp;Humidity;BMP_temperature;BMP_pressure;BME280_temperature;BME280_humidity;BME280_pressure;Samples;Min_cycle;Max_cycle;Signal;HPM_P1;HPM_P2
2021/04/24 00:00:58;;;;;;;9.80;3.60;;;14.50;45.10;;;;;;5062923;28;20043;-78
2021/04/24 00:03:24;;;;;;;7.55;3.58;;;14.50;45.50;;;;;;5059729;28;20022;-78
2021/04/24 00:05:50;;;;;;;9.25;3.60;;;14.50;45.70;;;;;;5059835;28;20017;-78
2021/04/24 00:08:17;;;;;;;5.70;2.90;;;14.40;46.00;;;;;;5058239;28;20502;-78
2021/04/24 00:10:45;;;;;;;9.85;3.65;;;14.40;45.60;;;;;;5059949;28;20045;-78
2021/04/24 00:13:13;;;;;;;9.90;3.63;;;14.30;45.80;;;;;;5071082;28;20092;-78
2021/04/24 00:15:39;;;;;;;6.13;3.05;;;14.40;45.60;;;;;;5079299;28;20039;-79
2021/04/24 00:18:06;;;;;;;7.72;3.88;;;14.40;45.80;;;;;;5079809;28;20016;-79
2021/04/24 00:20:33;;;;;;;5.68;3.20;;;14.20;45.80;;;;;;5066445;28;20039;-79
2021/04/24 00:22:59;;;;;;;7.47;3.50;;;14.20;46.00;;;;;;5059420;28;20483;-79
2021/04/24 00:25:25;;;;;;;6.22;3.35;;;14.10;46.40;;;;;;5059285;28;20021;-78
2021/04/24 00:27:51;;;;;;;8.05;3.95;;;14.10;46.10;;;;;;5059508;28;20437;-78
2021/04/24 00:30:17;;;;;;;8.65;3.65;;;14.00;46.70;;;;;;5063571;28;20076;-78
2021/04/24 00:32:44;;;;;;;7.20;3.67;;;13.90;46.60;;;;;;5078238;28;20112;-78
2021/04/24 00:35:11;;;;;;;7.35;3.30;;;13.90;46.70;;;;;;5059726;28;20079;-78
2021/04/24 00:37:37;;;;;;;6.25;3.45;;;13.70;46.90;;;;;;5058038;28;20025;-79
2021/04/24 00:40:05;;;;;;;7.78;3.92;;;13.90;46.20;;;;;;5058074;28;20037;-78
2021/04/24 00:42:30;;;;;;;8.48;3.80;;;13.80;46.30;;;;;;5059133;28;20020;-79
2021/04/24 00:44:56;;;;;;;9.10;4.07;;;13.80;46.20;;;;;;5058830;28;20476;-79
2021/04/24 00:47:24;;;;;;;7.35;4.20;;;13.80;45.50;;;;;;5059585;28;20024;-79
2021/04/24 00:49:51;;;;;;;7.05;3.40;;;13.70;46.40;;;;;;5058888;28;20027;-79
2021/04/24 00:52:17;;;;;;;10.93;3.72;;;13.70;46.60;;;;;;5064440;28;20021;-79
2021/04/24 00:54:43;;;;;;;10.13;3.85;;;13.90;46.10;;;;;;5079030;28;20494;-79
2021/04/24 00:57:10;;;;;;;7.30;4.15;;;13.80;45.90;;;;;;5067511;28;20064;-78
2021/04/24 00:59:38;;;;;;;7.18;3.63;;;13.60;46.90;;;;;;5058892;28;20055;-78
2021/04/24 01:02:05;;;;;;;9.57;4.32;;;13.60;46.80;;;;;;5057089;28;20021;-78
2021/04/24 01:04:32;;;;;;;9.38;3.70;;;13.50;47.00;;;;;;5059048;28;20384;-78
2021/04/24 01:06:58;;;;;;;8.02;3.60;;;13.40;46.80;;;;;;5058473;28;20072;-79
2021/04/24 01:09:25;;;;;;;7.28;4.18;;;13.50;46.80;;;;;;5058598;28;20040;-78
2021/04/24 01:11:51;;;;;;;8.48;4.28;;;13.50;47.20;;;;;;5060956;28;20025;-79
2021/04/24 01:14:17;;;;;;;8.57;4.40;;;13.40;47.80;;;;;;5077074;28;20089;-79
2021/04/24 01:16:44;;;;;;;9.13;4.22;;;13.50;47.70;;;;;;5069426;28;20036;-78
2021/04/24 01:19:20;;;;;;;8.63;4.30;;;13.50;48.40;;;;;;5071327;28;20047;-78
2021/04/24 01:21:48;;;;;;;8.13;3.95;;;13.20;48.80;;;;;;5063382;28;20047;-78
2021/04/24 01:24:14;;;;;;;8.45;4.25;;;13.20;48.80;;;;;;5069294;28;20475;-78
2021/04/24 01:26:40;;;;;;;9.35;3.80;;;13.30;48.50;;;;;;5058172;28;20025;-78
2021/04/24 01:29:06;;;;;;;8.30;4.15;;;13.10;48.60;;;;;;5058319;28;20025;-77
2021/04/24 01:31:36;;;;;;;6.70;3.95;;;13.20;48.60;;;;;;5072987;28;20024;-77
2021/04/24 01:34:04;;;;;;;9.02;4.00;;;13.00;48.90;;;;;;5078164;28;20387;-77
2021/04/24 01:36:30;;;;;;;8.88;4.38;;;12.90;48.80;;;;;;5077987;28;20028;-77
2021/04/24 01:38:56;;;;;;;7.72;4.13;;;12.90;49.30;;;;;;5067935;28;20033;-78
2021/04/24 01:41:21;;;;;;;10.02;4.63;;;12.90;49.30;;;;;;5057859;28;20086;-77
2021/04/24 01:43:52;;;;;;;8.10;4.13;;;12.90;49.20;;;;;;5059450;28;20029;-78
2021/04/24 01:46:18;;;;;;;9.25;4.60;;;12.80;49.90;;;;;;5057735;28;20025;-77
2021/04/24 01:48:44;;;;;;;10.38;4.55;;;12.70;49.50;;;;;;5058266;28;20044;-78
2021/04/24 01:51:11;;;;;;;8.73;4.88;;;12.70;49.70;;;;;;5057804;28;20060;-78
2021/04/24 01:53:38;;;;;;;7.05;4.40;;;12.70;49.50;;;;;;5074153;28;20032;-78
2021/04/24 01:56:05;;;;;;;10.25;4.50;;;12.70;49.60;;;;;;5078113;28;20036;-78
2021/04/24 01:58:31;;;;;;;7.03;4.43;;;12.70;49.60;;;;;;5071346;28;20112;-77
2021/04/24 02:01:03;;;;;;;8.90;4.82;;;12.70;49.40;;;;;;5065386;28;20056;-78
2021/04/24 02:03:29;;;;;;;;;;;12.60;49.60;;;;;;5066634;28;20017;-78
2021/04/24 02:05:56;;;;;;;8.48;4.35;;;12.50;49.60;;;;;;5057558;28;20295;-78
2021/04/24 02:08:41;;;;;;;8.82;4.60;;;12.50;49.60;;;;;;5057802;28;20028;-77
2021/04/24 02:11:08;;;;;;;8.25;4.30;;;12.40;49.60;;;;;;5061626;28;20028;-78
2021/04/24 02:13:40;;;;;;;8.43;4.55;;;12.30;49.80;;;;;;5076592;28;20063;-78
2021/04/24 02:16:07;;;;;;;8.15;4.55;;;12.30;50.20;;;;;;5077484;28;20100;-78
2021/04/24 02:18:33;;;;;;;9.52;4.68;;;12.30;50.10;;;;;;5071525;28;20029;-78
2021/04/24 02:20:59;;;;;;;8.35;4.63;;;12.50;49.70;;;;;;5057323;28;20025;-77
2021/04/24 02:23:25;;;;;;;9.35;4.70;;;12.50;49.70;;;;;;5057381;28;20032;-77
2021/04/24 02:25:51;;;;;;;9.98;4.75;;;12.20;50.10;;;;;;5057443;28;20021;-77
2021/04/24 02:28:17;;;;;;;12.13;4.82;;;12.30;50.10;;;;;;5057142;28;20122;-77
2021/04/24 02:30:45;;;;;;;9.32;5.15;;;12.30;50.20;;;;;;5076977;28;20048;-78
2021/04/24 02:33:11;;;;;;;9.55;4.75;;;12.30;50.10;;;;;;5077487;28;20025;-77
2021/04/24 02:35:45;;;;;;;7.65;4.80;;;12.30;50.20;;;;;;5077300;28;20025;-77
2021/04/24 02:38:19;;;;;;;11.63;5.60;;;12.30;49.90;;;;;;5074710;28;20067;-77
2021/04/24 02:40:45;;;;;;;11.57;5.45;;;12.20;50.10;;;;;;5057207;28;20025;-77
2021/04/24 02:43:11;;;;;;;9.52;4.90;;;12.10;50.00;;;;;;5057406;28;20079;-77
2021/04/24 02:45:37;;;;;;;10.10;5.47;;;12.20;50.30;;;;;;5056925;28;20021;-77
2021/04/24 02:48:04;;;;;;;8.63;5.15;;;12.10;50.10;;;;;;5055749;28;20029;-77
2021/04/24 02:50:30;;;;;;;10.07;5.15;;;12.30;49.80;;;;;;5057125;28;20078;-77
2021/04/24 02:52:56;;;;;;;7.22;4.80;;;12.20;49.90;;;;;;5067747;28;20032;-77
2021/04/24 02:55:21;;;;;;;11.25;5.25;;;12.20;50.20;;;;;;5059258;28;20033;-77
2021/04/24 02:57:48;;;;;;;10.52;5.03;;;12.20;50.30;;;;;;5068343;28;20115;-77
2021/04/24 03:00:17;;;;;;;11.77;5.68;;;12.10;50.50;;;;;;5075368;28;20047;-78
2021/04/24 03:02:43;;;;;;;8.75;4.85;;;12.00;51.00;;;;;;5058192;28;20476;-77
2021/04/24 03:05:15;;;;;;;8.13;4.78;;;11.90;52.00;;;;;;5057520;28;20086;-77
2021/04/24 03:07:41;;;;;;;11.60;4.72;;;11.80;52.50;;;;;;5055860;28;20037;-77
2021/04/24 03:10:09;;;;;;;10.23;5.47;;;11.90;51.90;;;;;;5056840;28;20025;-77
2021/04/24 03:12:35;;;;;;;14.52;5.65;;;11.90;52.10;;;;;;5064578;28;20085;-77
2021/04/24 03:15:01;;;;;;;9.15;5.05;;;11.90;51.40;;;;;;5080743;28;20481;-77
2021/04/24 03:17:27;;;;;;;9.60;7.90;;;11.80;51.80;;;;;;5077913;28;20474;-77
2021/04/24 03:19:53;;;;;;;17.83;15.70;;;11.70;51.70;;;;;;5059549;28;20131;-78
2021/04/24 03:22:19;;;;;;;108.70;65.07;;;11.70;51.70;;;;;;5059469;28;20032;-78
2021/04/24 03:24:44;;;;;;;124.45;73.03;;;11.70;51.60;;;;;;5060724;28;20040;-78
2021/04/24 03:27:10;;;;;;;93.82;55.25;;;11.60;52.00;;;;;;5060612;28;20017;-78
2021/04/24 03:29:36;;;;;;;58.10;34.35;;;11.50;51.90;;;;;;5059324;28;20040;-78
2021/04/24 03:32:02;;;;;;;33.30;20.25;;;11.60;51.70;;;;;;5078186;28;20035;-77
2021/04/24 03:34:28;;;;;;;25.83;14.82;;;11.60;52.00;;;;;;5067502;28;20025;-77
2021/04/24 03:36:54;;;;;;;22.98;13.02;;;11.60;51.70;;;;;;5060358;28;20147;-77
2021/04/24 03:39:20;;;;;;;19.77;11.40;;;11.60;51.70;;;;;;5060742;28;20719;-77
2021/04/24 03:41:45;;;;;;;18.17;9.80;;;11.60;52.10;;;;;;5060197;28;20048;-77
2021/04/24 03:44:11;;;;;;;18.63;9.90;;;11.60;52.00;;;;;;5060384;28;20074;-77
2021/04/24 03:46:37;;;;;;;15.73;8.40;;;11.60;52.00;;;;;;5058843;28;20032;-77
2021/04/24 03:49:03;;;;;;;10.88;6.55;;;11.50;52.20;;;;;;5060222;28;20021;-77
2021/04/24 03:51:29;;;;;;;12.05;6.70;;;11.40;52.10;;;;;;5060112;28;20025;-77
2021/04/24 03:53:55;;;;;;;10.77;6.22;;;11.40;52.80;;;;;;5079065;28;20063;-78
2021/04/24 03:56:21;;;;;;;11.65;6.47;;;11.30;52.90;;;;;;5066743;28;20116;-77
2021/04/24 03:58:46;;;;;;;9.95;5.78;;;11.40;53.00;;;;;;5060010;28;20064;-77
2021/04/24 04:01:12;;;;;;;10.40;5.70;;;11.40;53.00;;;;;;5066245;28;20085;-77
2021/04/24 04:03:38;;;;;;;11.65;6.07;;;11.30;53.00;;;;;;5080116;28;20104;-77
2021/04/24 04:06:04;;;;;;;10.18;5.50;;;11.20;52.80;;;;;;5069138;28;20032;-78
2021/04/24 04:08:30;;;;;;;13.45;5.60;;;11.20;53.00;;;;;;5059778;28;20104;-78
2021/04/24 04:10:56;;;;;;;9.98;5.70;;;11.00;53.20;;;;;;5071154;28;20040;-77
2021/04/24 04:13:21;;;;;;;9.75;5.43;;;11.10;53.00;;;;;;5079539;28;20025;-77
2021/04/24 04:15:47;;;;;;;10.07;5.63;;;11.00;52.90;;;;;;5067163;28;20060;-77
2021/04/24 04:18:18;;;;;;;10.48;5.72;;;10.90;53.60;;;;;;5059512;28;20024;-77
2021/04/24 04:20:53;;;;;;;9.48;5.82;;;11.00;53.80;;;;;;5059575;28;20052;-77
2021/04/24 04:23:19;;;;;;;10.80;5.53;;;10.90;54.50;;;;;;5059513;28;20021;-77
2021/04/24 04:25:46;;;;;;;11.27;6.65;;;10.90;54.40;;;;;;5059687;28;20036;-77
2021/04/24 04:28:13;;;;;;;8.85;5.38;;;10.80;54.80;;;;;;5059566;28;20059;-77
2021/04/24 04:30:40;;;;;;;9.68;5.40;;;10.80;54.20;;;;;;5066551;28;20091;-77
2021/04/24 04:33:08;;;;;;;8.77;6.05;;;10.80;54.00;;;;;;5079463;28;20372;-77
2021/04/24 04:35:35;;;;;;;12.13;6.07;;;10.80;53.70;;;;;;5064076;28;20025;-77
2021/04/24 04:38:02;;;;;;;9.85;6.50;;;10.80;53.90;;;;;;5059216;28;20507;-77
2021/04/24 04:40:28;;;;;;;13.02;6.60;;;10.80;53.80;;;;;;5059069;28;20045;-76
2021/04/24 04:42:53;;;;;;;10.93;6.57;;;10.80;54.10;;;;;;5059570;28;20044;-77
2021/04/24 04:45:20;;;;;;;11.35;6.75;;;10.80;54.00;;;;;;5058812;28;20017;-77
2021/04/24 04:47:46;;;;;;;13.05;6.57;;;10.70;54.30;;;;;;5059059;28;20029;-78
2021/04/24 04:50:17;;;;;;;13.18;6.50;;;10.60;54.50;;;;;;5059204;28;20373;-77
2021/04/24 04:52:43;;;;;;;15.43;6.50;;;10.60;54.30;;;;;;5063882;28;20438;-77
2021/04/24 04:55:10;;;;;;;11.35;6.65;;;10.70;54.10;;;;;;5066183;28;20047;-77
2021/04/24 04:57:37;;;;;;;13.68;7.05;;;10.60;54.20;;;;;;5066981;28;20446;-77
2021/04/24 05:00:08;;;;;;;11.85;7.25;;;10.50;54.30;;;;;;5058428;28;20472;-78
2021/04/24 05:02:34;;;;;;;12.52;7.35;;;10.60;54.70;;;;;;5059454;28;20017;-77
2021/04/24 05:05:00;;;;;;;13.65;7.32;;;10.60;54.60;;;;;;5058692;28;20104;-77
2021/04/24 05:07:26;;;;;;;11.68;7.05;;;10.60;54.40;;;;;;5058668;28;20078;-77
2021/04/24 05:09:51;;;;;;;12.57;7.55;;;10.40;55.30;;;;;;5064245;28;20023;-77
2021/04/24 05:12:17;;;;;;;10.07;6.88;;;10.50;54.90;;;;;;5078608;28;20025;-78
2021/04/24 05:14:43;;;;;;;10.65;6.82;;;10.50;54.80;;;;;;5078169;28;20016;-77
2021/04/24 05:17:10;;;;;;;12.55;6.85;;;10.50;55.30;;;;;;5078876;28;20020;-77
2021/04/24 05:19:36;;;;;;;13.30;6.93;;;10.40;55.30;;;;;;5066243;28;20029;-77
2021/04/24 05:22:02;;;;;;;9.20;6.57;;;10.40;55.30;;;;;;5058467;28;20387;-77
2021/04/24 05:24:28;;;;;;;10.48;6.72;;;10.40;55.30;;;;;;5058284;28;20021;-77
2021/04/24 05:26:54;;;;;;;11.85;6.60;;;10.40;55.00;;;;;;5058637;28;20464;-77
2021/04/24 05:29:20;;;;;;;10.43;6.53;;;10.40;55.70;;;;;;5058309;28;20062;-78
2021/04/24 05:31:46;;;;;;;12.70;6.50;;;10.40;55.70;;;;;;5074910;28;20528;-77
2021/04/24 05:34:11;;;;;;;11.77;6.63;;;10.40;55.70;;;;;;5078237;28;20139;-78
2021/04/24 05:36:37;;;;;;;10.18;6.25;;;10.40;56.00;;;;;;5077344;28;20075;-77
2021/04/24 05:39:04;;;;;;;13.35;6.60;;;10.50;56.10;;;;;;5073560;28;20029;-77
2021/04/24 05:41:30;;;;;;;11.75;7.13;;;10.40;55.70;;;;;;5058915;28;20036;-77
2021/04/24 05:43:57;;;;;;;11.25;7.00;;;10.50;55.70;;;;;;5057894;28;20025;-77
2021/04/24 05:46:25;;;;;;;13.20;7.32;;;10.60;55.50;;;;;;5057858;28;20021;-77
2021/04/24 05:48:52;;;;;;;9.98;6.57;;;10.60;56.10;;;;;;5057782;28;20021;-77
2021/04/24 05:51:19;;;;;;;10.52;5.88;;;10.70;55.40;;;;;;5058362;28;20108;-77
2021/04/24 05:53:46;;;;;;;9.90;6.22;;;10.60;55.50;;;;;;5075260;28;20031;-77
2021/04/24 05:56:13;;;;;;;10.98;6.20;;;10.70;55.40;;;;;;5077882;28;20103;-77
2021/04/24 05:58:39;;;;;;;11.07;6.15;;;10.70;55.80;;;;;;5077613;28;20024;-78
2021/04/24 06:01:05;;;;;;;10.55;5.97;;;10.70;55.70;;;;;;5070758;28;20019;-77
2021/04/24 06:03:31;;;;;;;13.20;6.32;;;10.80;55.50;;;;;;5057587;28;20021;-77
2021/04/24 06:05:57;;;;;;;10.80;6.38;;;10.90;55.60;;;;;;5057863;28;20420;-77
2021/04/24 06:08:23;;;;;;;13.05;6.20;;;10.80;56.00;;;;;;5057722;28;20016;-77
2021/04/24 06:10:49;;;;;;;10.43;5.88;;;10.90;55.30;;;;;;5070212;28;20122;-77
2021/04/24 06:13:14;;;;;;;10.82;5.57;;;10.90;55.60;;;;;;5077446;28;20024;-77
2021/04/24 06:15:40;;;;;;;11.70;6.35;;;11.00;55.60;;;;;;5077361;28;20593;-77
2021/04/24 06:18:07;;;;;;;9.85;5.60;;;11.10;55.00;;;;;;5066597;28;20024;-77
2021/04/24 06:20:33;;;;;;;11.70;5.68;;;11.20;55.20;;;;;;5057321;28;20040;-77
2021/04/24 06:22:59;;;;;;;9.00;5.22;;;11.30;55.00;;;;;;5057138;28;20021;-77
2021/04/24 06:25:26;;;;;;;10.38;5.63;;;11.40;54.20;;;;;;5057433;28;20013;-78
2021/04/24 06:27:52;;;;;;;9.50;5.10;;;11.40;53.80;;;;;;5057517;28;20027;-76
2021/04/24 06:30:19;;;;;;;10.98;5.35;;;11.50;54.50;;;;;;5061699;28;20036;-78
2021/04/24 06:32:47;;;;;;;8.52;5.32;;;11.60;52.90;;;;;;5077250;28;20062;-81
2021/04/24 06:35:15;;;;;;;9.10;5.82;;;11.60;52.50;;;;;;5075995;28;20387;-76
2021/04/24 06:37:41;;;;;;;9.07;5.28;;;11.80;52.40;;;;;;5057371;28;20029;-74
2021/04/24 06:40:09;;;;;;;10.02;5.60;;;11.90;52.90;;;;;;5055980;28;20035;-73
2021/04/24 06:42:36;;;;;;;9.07;4.68;;;11.90;53.10;;;;;;5064292;28;20024;-73
2021/04/24 06:45:04;;;;;;;9.93;4.85;;;12.10;52.00;;;;;;5077084;28;20021;-77
2021/04/24 06:47:30;;;;;;;10.55;5.18;;;12.10;51.30;;;;;;5076164;28;20483;-76
2021/04/24 06:49:56;;;;;;;10.98;5.80;;;13.20;50.70;;;;;;5059822;28;20021;-77
2021/04/24 06:52:22;;;;;;;8.57;5.20;;;15.10;47.10;;;;;;5067274;28;20013;-83
2021/04/24 06:54:48;;;;;;;7.68;4.68;;;19.10;42.40;;;;;;5080217;28;20020;-80
2021/04/24 06:57:13;;;;;;;9.30;4.68;;;21.30;36.50;;;;;;5075014;28;20045;-81
2021/04/24 06:59:40;;;;;;;10.05;4.90;;;22.70;34.20;;;;;;5059752;28;20055;-75
2021/04/24 07:02:08;;;;;;;7.38;4.90;;;22.90;34.60;;;;;;5076262;28;20525;-75
2021/04/24 07:04:34;;;;;;;7.07;4.20;;;24.10;33.20;;;;;;5069675;28;20045;-77
2021/04/24 07:07:00;;;;;;;7.85;4.50;;;24.10;31.80;;;;;;5059719;28;20029;-79
2021/04/24 07:09:25;;;;;;;8.35;4.35;;;24.60;31.60;;;;;;5061501;28;20019;-76
2021/04/24 07:11:51;;;;;;;8.82;4.65;;;24.50;31.60;;;;;;5062719;28;20040;-76
2021/04/24 07:14:17;;;;;;;7.18;4.28;;;23.20;33.30;;;;;;5059807;28;20195;-65
2021/04/24 07:16:43;;;;;;;10.88;4.78;;;23.80;32.50;;;;;;5060579;28;20025;-65
2021/04/24 07:19:08;;;;;;;7.25;4.85;;;22.40;33.80;;;;;;5061028;28;20079;-65
2021/04/24 07:21:34;;;;;;;8.07;5.00;;;22.00;33.60;;;;;;5060693;28;20037;-64
2021/04/24 07:24:00;;;;;;;9.43;4.80;;;22.10;34.10;;;;;;5060529;28;20085;-64
2021/04/24 07:26:26;;;;;;;7.28;4.70;;;23.10;32.30;;;;;;5060562;28;20035;-65
2021/04/24 07:28:52;;;;;;;8.32;4.20;;;24.60;31.40;;;;;;5060833;28;20021;-67
2021/04/24 07:31:17;;;;;;;8.73;4.32;;;25.50;31.00;;;;;;5073096;28;20074;-73
2021/04/24 07:33:45;;;;;;;8.65;4.30;;;27.10;29.90;;;;;;5080585;28;20021;-81
2021/04/24 07:36:12;;;;;;;10.38;5.18;;;27.40;30.10;;;;;;5079143;28;20036;-80
2021/04/24 07:38:38;;;;;;;10.27;4.28;;;26.60;29.90;;;;;;5079899;28;20386;-68
2021/04/24 07:41:04;;;;;;;8.57;4.80;;;28.00;29.30;;;;;;5064770;28;20029;-66
2021/04/24 07:43:31;;;;;;;11.65;5.90;;;28.60;29.50;;;;;;5060390;28;20017;-67
2021/04/24 07:45:57;;;;;;;13.10;6.68;;;26.60;29.70;;;;;;5059918;28;20108;-66
2021/04/24 07:48:22;;;;;;;13.38;5.78;;;26.70;29.70;;;;;;5064782;28;20055;-67
2021/04/24 07:50:49;;;;;;;10.35;4.80;;;25.60;30.80;;;;;;5060254;28;20095;-78
2021/04/24 07:53:16;;;;;;;10.10;4.82;;;24.10;32.60;;;;;;5064566;28;20025;-76
2021/04/24 07:55:42;;;;;;;8.25;4.20;;;22.50;33.00;;;;;;5058885;28;20475;-78
2021/04/24 07:58:08;;;;;;;9.13;4.07;;;21.40;34.50;;;;;;5059006;28;20118;-82
2021/04/24 08:00:36;;;;;;;7.95;4.82;;;20.90;36.50;;;;;;5059314;28;20033;-80
2021/04/24 08:03:02;;;;;;;9.00;4.80;;;21.20;35.70;;;;;;5060328;28;20029;-82
2021/04/24 08:05:27;;;;;;;8.40;4.55;;;21.70;35.10;;;;;;5071719;28;20039;-78
2021/04/24 08:07:53;;;;;;;7.45;4.70;;;22.20;35.60;;;;;;5072839;28;20017;-79
2021/04/24 08:10:19;;;;;;;10.48;4.60;;;21.90;35.00;;;;;;5066792;28;20024;-78
2021/04/24 08:12:46;;;;;;;8.82;4.53;;;21.90;35.20;;;;;;5079705;28;20020;-78
2021/04/24 08:15:13;;;;;;;7.13;4.35;;;22.00;35.80;;;;;;5062537;28;20058;-77
2021/04/24 08:17:39;;;;;;;6.18;4.00;;;22.20;35.70;;;;;;5059904;28;20021;-79
2021/04/24 08:20:10;;;;;;;6.43;4.00;;;22.30;34.20;;;;;;5065726;28;20574;-80
2021/04/24 08:22:36;;;;;;;8.90;4.28;;;21.90;34.50;;;;;;5069989;28;20008;-79
2021/04/24 08:25:04;;;;;;;8.70;4.65;;;22.70;33.70;;;;;;5072521;28;20515;-80
2021/04/24 08:27:30;;;;;;;10.48;5.38;;;23.40;34.30;;;;;;5069998;28;20467;-79
2021/04/24 08:29:56;;;;;;;9.32;4.68;;;23.40;33.10;;;;;;5073556;28;20190;-79
2021/04/24 08:32:22;;;;;;;7.82;4.40;;;23.10;33.70;;;;;;5060227;28;20031;-80
2021/04/24 08:34:47;;;;;;;9.40;5.40;;;22.50;33.70;;;;;;5059384;28;20029;-80
2021/04/24 08:37:13;;;;;;;11.60;5.20;;;22.70;34.10;;;;;;5059177;28;20075;-81
2021/04/24 08:39:39;;;;;;;9.98;4.47;;;23.20;33.00;;;;;;5059283;28;20025;-81
2021/04/24 08:42:06;;;;;;;8.10;4.25;;;23.30;33.60;;;;;;5059181;28;20033;-80
2021/04/24 08:44:33;;;;;;;9.55;4.55;;;22.90;33.80;;;;;;5058747;28;20028;-83
2021/04/24 08:46:59;;;;;;;10.30;4.82;;;21.50;33.90;;;;;;5058945;28;20612;-85
2021/04/24 08:49:28;;;;;;;7.57;4.38;;;20.40;35.40;;;;;;5073492;28;20024;-82
2021/04/24 08:51:54;;;;;;;9.80;4.40;;;20.40;37.20;;;;;;5072761;28;20044;-83
2021/04/24 08:54:21;;;;;;;9.13;4.90;;;20.40;37.20;;;;;;5079146;28;20025;-82
2021/04/24 08:56:50;;;;;;;9.55;4.72;;;20.50;37.50;;;;;;5078708;28;20056;-82
2021/04/24 08:59:15;;;;;;;9.77;4.65;;;20.00;35.80;;;;;;5066025;28;20033;-83
2021/04/24 09:01:42;;;;;;;10.50;4.47;;;21.20;37.00;;;;;;5058638;28;20041;-83
2021/04/24 09:04:08;;;;;;;10.15;5.10;;;21.50;36.00;;;;;;5058591;28;20027;-83
2021/04/24 09:06:35;;;;;;;10.63;4.90;;;21.80;34.20;;;;;;5058929;28;20028;-84
2021/04/24 09:09:08;;;;;;;10.90;4.75;;;22.40;35.20;;;;;;5058497;28;20456;-84
2021/04/24 09:11:39;;;;;;;;;;;22.90;35.50;;;;;;5066449;28;20029;-83
2021/04/24 09:14:08;;;;;;;9.57;4.20;;;22.90;33.90;;;;;;5074132;28;19908;-83
2021/04/24 09:16:35;;;;;;;8.30;4.72;;;22.20;34.60;;;;;;5058614;28;20479;-84
2021/04/24 09:19:02;;;;;;;9.90;4.88;;;21.50;36.10;;;;;;5057022;28;20025;-85
2021/04/24 09:21:30;;;;;;;8.85;4.55;;;21.80;34.90;;;;;;5056942;28;20025;-84
2021/04/24 09:23:56;;;;;;;7.05;4.50;;;23.40;34.60;;;;;;5061720;28;20029;-84
2021/04/24 09:26:26;;;;;;;9.98;4.40;;;24.40;33.70;;;;;;5070646;28;20032;-84
2021/04/24 09:29:03;;;;;;;8.77;5.32;;;24.80;36.00;;;;;;5059869;28;20032;-84
2021/04/24 09:31:31;;;;;;;8.25;4.85;;;24.70;34.10;;;;;;5068376;28;20101;-84
2021/04/24 09:33:59;;;;;;;10.30;4.75;;;24.80;34.70;;;;;;5062501;28;20016;-84
2021/04/24 09:36:37;;;;;;;9.93;4.47;;;24.80;33.10;;;;;;5058035;28;20104;-84
2021/04/24 09:39:08;;;;;;;8.40;3.95;;;25.50;32.20;;;;;;5061816;28;20020;-79
2021/04/24 09:41:40;;;;;;;12.30;4.55;;;25.20;31.60;;;;;;5077460;28;20033;-75
2021/04/24 09:44:10;;;;;;;8.02;4.60;;;25.40;33.90;;;;;;5071261;28;20021;-75
2021/04/24 09:46:54;;;;;;;9.02;4.28;;;25.60;32.90;;;;;;5075452;28;20048;-72
2021/04/24 09:49:29;;;;;;;9.15;4.50;;;25.80;31.50;;;;;;5072786;28;20016;-71
2021/04/24 09:51:59;;;;;;;9.10;4.00;;;26.30;31.20;;;;;;5064890;28;20024;-72
2021/04/24 09:54:47;;;;;;;12.40;4.95;;;25.50;31.30;;;;;;5070354;28;20028;-71
2021/04/24 09:57:20;;;;;;;7.60;4.43;;;24.90;32.70;;;;;;5077704;28;20071;-66
2021/04/24 09:59:56;;;;;;;7.90;4.45;;;25.30;33.40;;;;;;5064083;28;20154;-70
2021/04/24 10:02:32;;;;;;;7.68;4.47;;;25.60;32.40;;;;;;5063999;28;20035;-72
2021/04/24 10:05:13;;;;;;;9.77;4.97;;;26.50;32.60;;;;;;5069440;28;20510;-71
2021/04/24 10:07:49;;;;;;;11.68;7.13;;;27.10;31.40;;;;;;5074298;28;20503;-70
2021/04/24 10:10:38;;;;;;;9.10;5.45;;;30.50;31.30;;;;;;5062832;28;20021;-76
2021/04/24 10:13:06;;;;;;;8.18;4.70;;;29.80;27.80;;;;;;5057428;28;20028;-66
2021/04/24 10:15:42;;;;;;;8.70;5.72;;;28.90;30.90;;;;;;5061831;28;20047;-67
2021/04/24 10:18:13;;;;;;;8.52;5.53;;;29.30;31.10;;;;;;5077146;28;20116;-70
2021/04/24 10:20:43;;;;;;;7.70;4.25;;;29.40;30.60;;;;;;5082388;28;20024;-73
2021/04/24 10:23:11;;;;;;;6.43;4.30;;;29.10;30.00;;;;;;5076524;28;20021;-73
2021/04/24 10:25:37;;;;;;;9.30;4.43;;;29.40;31.30;;;;;;5078664;28;20017;-71
2021/04/24 10:28:03;;;;;;;8.52;4.20;;;29.60;31.20;;;;;;5068077;28;20046;-69
2021/04/24 10:30:29;;;;;;;15.48;5.43;;;28.90;28.60;;;;;;5073875;28;20121;-74
2021/04/24 10:32:56;;;;;;;8.05;4.03;;;29.50;29.10;;;;;;5072233;28;20048;-67
2021/04/24 10:35:25;;;;;;;8.35;4.82;;;28.40;29.70;;;;;;5077023;28;20494;-69
2021/04/24 10:37:52;;;;;;;8.02;4.57;;;27.90;32.60;;;;;;5073081;28;20482;-66
2021/04/24 10:40:20;;;;;;;8.15;6.03;;;28.70;33.70;;;;;;5066163;28;20055;-66
2021/04/24 10:42:54;;;;;;;10.18;5.13;;;28.70;31.90;;;;;;5073417;28;20012;-67
2021/04/24 10:45:31;;;;;;;10.45;5.68;;;28.80;30.90;;;;;;5073880;28;20020;-65
2021/04/24 10:47:58;;;;;;;15.18;6.78;;;27.40;30.50;;;;;;5075746;28;20029;-67
2021/04/24 10:50:39;;;;;;;15.75;6.50;;;27.20;32.10;;;;;;5061455;28;20029;-68
2021/04/24 10:53:20;;;;;;;12.02;6.20;;;26.90;32.90;;;;;;5067933;28;20017;-69
2021/04/24 10:55:46;;;;;;;19.58;13.50;;;26.70;32.90;;;;;;5058650;28;20037;-69
2021/04/24 10:58:17;;;;;;;11.00;7.82;;;26.70;32.60;;;;;;5070202;28;20402;-66
2021/04/24 11:00:47;;;;;;;30.70;21.20;;;27.20;33.90;;;;;;5074827;28;20025;-63
2021/04/24 11:03:35;;;;;;;18.95;11.25;;;28.10;32.10;;;;;;5068892;28;20100;-73
2021/04/24 11:06:15;;;;;;;15.63;9.48;;;28.40;31.30;;;;;;5061831;28;20029;-71
2021/04/24 11:08:42;;;;;;;8.68;4.70;;;28.40;31.30;;;;;;5074389;28;20032;-80
2021/04/24 11:11:18;;;;;;;10.18;5.07;;;29.00;29.60;;;;;;5074755;28;20020;-78
2021/04/24 11:13:52;;;;;;;10.00;4.78;;;30.40;30.70;;;;;;5075646;28;20047;-85
2021/04/24 11:16:18;;;;;;;7.57;4.82;;;30.00;28.70;;;;;;5074606;28;20046;-83
2021/04/24 11:18:50;;;;;;;12.48;4.32;;;30.20;29.90;;;;;;5075185;28;20391;-80
2021/04/24 11:21:23;;;;;;;9.60;4.80;;;28.70;29.80;;;;;;5068945;28;20032;-90
2021/04/24 11:24:07;;;;;;;9.75;4.38;;;27.50;30.90;;;;;;5056594;28;20025;-77
2021/04/24 11:26:33;;;;;;;9.02;4.97;;;27.70;30.80;;;;;;5064991;28;20020;-72
2021/04/24 11:29:17;;;;;;;14.00;6.05;;;27.00;30.50;;;;;;5075912;28;20035;-74
2021/04/24 11:31:49;;;;;;;11.63;7.50;;;27.60;32.30;;;;;;5072550;28;20043;-73
2021/04/24 11:34:24;;;;;;;12.10;4.78;;;28.40;29.80;;;;;;5059188;28;20025;-74
2021/04/24 11:37:09;;;;;;;8.73;4.80;;;28.40;30.00;;;;;;5063359;28;20491;-74
2021/04/24 11:39:35;;;;;;;8.95;5.28;;;28.30;31.10;;;;;;5064088;28;20048;-75
2021/04/24 11:42:27;;;;;;;9.40;5.50;;;27.70;30.00;;;;;;5075706;28;20479;-75
2021/04/24 11:44:52;;;;;;;9.80;5.20;;;28.60;31.40;;;;;;5076878;28;20037;-75
2021/04/24 11:47:38;;;;;;;8.23;4.82;;;29.50;30.00;;;;;;5079999;28;20031;-75
2021/04/24 11:50:06;;;;;;;10.18;4.28;;;30.70;29.10;;;;;;5080038;28;20548;-75
2021/04/24 11:52:32;;;;;;;9.77;4.43;;;30.40;29.90;;;;;;5080505;28;20021;-75
2021/04/24 11:54:57;;;;;;;8.00;4.35;;;30.10;29.20;;;;;;5079948;28;20108;-75
2021/04/24 11:57:24;;;;;;;7.10;4.18;;;30.20;30.30;;;;;;5080354;28;20028;-75
2021/04/24 11:59:50;;;;;;;9.35;4.22;;;29.90;31.20;;;;;;5079630;28;20028;-75
2021/04/24 12:02:18;;;;;;;13.20;5.72;;;30.00;30.40;;;;;;5080106;28;20025;-75
2021/04/24 12:04:46;;;;;;;8.13;4.22;;;29.70;30.40;;;;;;5079812;28;20016;-75
2021/04/24 12:07:14;;;;;;;11.73;4.57;;;29.60;30.80;;;;;;5079991;28;20174;-75
2021/04/24 12:09:50;;;;;;;8.80;3.40;;;29.70;30.00;;;;;;5079622;28;20036;-75
2021/04/24 12:12:36;;;;;;;7.25;3.55;;;29.40;28.80;;;;;;5064621;28;20032;-75
2021/04/24 12:15:12;;;;;;;7.80;3.45;;;29.10;29.90;;;;;;5057979;28;20189;-75
2021/04/24 12:17:55;;;;;;;9.93;4.05;;;28.50;29.50;;;;;;5058419;28;20021;-75
2021/04/24 12:20:25;;;;;;;9.13;4.70;;;27.80;30.00;;;;;;5058314;28;20039;-75
2021/04/24 12:22:52;;;;;;;14.52;9.70;;;27.50;30.80;;;;;;5077053;28;20017;-75
2021/04/24 12:25:20;;;;;;;12.48;6.95;;;26.90;31.50;;;;;;5065971;28;20060;-75
2021/04/24 12:27:48;;;;;;;7.88;4.47;;;26.90;31.00;;;;;;5059415;28;20450;-75
2021/04/24 12:30:22;;;;;;;10.57;4.38;;;26.60;32.00;;;;;;5062548;28;20448;-75
2021/04/24 12:33:08;;;;;;;7.78;3.60;;;26.10;31.10;;;;;;5079094;28;20031;-75
2021/04/24 12:35:39;;;;;;;6.78;3.60;;;26.20;33.30;;;;;;5069557;28;20097;-75
2021/04/24 12:38:08;;;;;;;9.98;3.72;;;26.10;32.00;;;;;;5078298;28;20035;-76
2021/04/24 12:40:39;;;;;;;8.52;3.60;;;25.80;32.30;;;;;;5076561;28;20040;-75
2021/04/24 12:43:16;;;;;;;7.22;3.63;;;25.80;32.70;;;;;;5079235;28;20052;-75
2021/04/24 12:45:44;;;;;;;6.72;3.20;;;25.30;32.00;;;;;;5077554;28;20490;-75
2021/04/24 12:48:17;;;;;;;7.88;3.00;;;25.50;32.90;;;;;;5077483;28;20048;-75